createdAt,value
2023-03-14T00:02:55.454Z,28.19
2023-03-14T00:06:55.421Z,28.18
2023-03-14T00:10:55.622Z,28.18
2023-03-14T00:14:55.845Z,28.22
2023-03-14T00:18:56.033Z,28.17
2023-03-14T00:22:56.207Z,28.19
2023-03-14T00:26:56.392Z,28.19
2023-03-14T00:30:56.661Z,28.21
2023-03-14T00:34:56.764Z,28.16
2023-03-14T00:38:57.114Z,28.18
2023-03-14T00:42:57.204Z,28.21
2023-03-14T00:46:57.432Z,28.23
2023-03-14T00:50:57.566Z,28.21
2023-03-14T00:54:57.745Z,28.24
2023-03-14T00:58:57.939Z,28.23
2023-03-14T01:02:58.256Z,28.19
2023-03-14T01:06:58.337Z,28.28
2023-03-14T01:10:58.471Z,28.22
2023-03-14T01:14:58.653Z,28.19
2023-03-14T01:18:58.834Z,28.22
2023-03-14T01:22:59.063Z,28.20
2023-03-14T01:26:59.215Z,28.21
2023-03-14T01:30:59.417Z,28.24
2023-03-14T01:34:59.632Z,28.23
2023-03-14T01:38:59.797Z,28.21
2023-03-14T01:43:00.215Z,28.21
2023-03-14T01:47:00.247Z,28.19
2023-03-14T01:51:00.418Z,28.17
2023-03-14T01:55:00.655Z,28.20
2023-03-14T01:59:00.901Z,28.17
2023-03-14T02:03:01.075Z,28.15
2023-03-14T02:07:01.288Z,28.13
2023-03-14T02:11:01.478Z,28.21
2023-03-14T02:15:01.454Z,28.16
2023-03-14T02:19:01.387Z,28.16
2023-03-14T02:23:01.324Z,28.09
2023-03-14T02:27:01.324Z,28.10
2023-03-14T02:31:01.283Z,28.13
2023-03-14T02:35:01.264Z,28.12
2023-03-14T02:39:01.190Z,28.16
2023-03-14T02:43:01.167Z,28.13
2023-03-14T02:47:01.145Z,28.12
2023-03-14T02:51:01.148Z,28.11
2023-03-14T02:55:01.049Z,28.04
2023-03-14T02:59:01.043Z,28.08
2023-03-14T03:03:01.014Z,28.13
2023-03-14T03:07:00.957Z,28.11
2023-03-14T03:11:00.910Z,28.14
2023-03-14T03:15:00.871Z,28.18
2023-03-14T03:19:00.842Z,28.15
2023-03-14T03:23:00.800Z,28.19
2023-03-14T03:27:00.751Z,28.18
2023-03-14T03:31:00.831Z,28.23
2023-03-14T03:35:00.693Z,28.30
2023-03-14T03:39:00.673Z,28.32
2023-03-14T03:43:00.789Z,28.42
2023-03-14T03:47:01.057Z,28.54
2023-03-14T03:51:01.169Z,28.59
2023-03-14T03:55:01.313Z,28.72
2023-03-14T03:59:01.488Z,28.90
2023-03-14T04:03:01.584Z,29.10
2023-03-14T04:07:01.729Z,29.13
2023-03-14T04:11:01.875Z,29.20
2023-03-14T04:15:02.086Z,29.32
2023-03-14T04:19:02.240Z,29.39
2023-03-14T04:23:02.414Z,29.56
2023-03-14T04:27:02.522Z,29.69
2023-03-14T04:31:02.648Z,29.72
2023-03-14T04:35:02.778Z,29.82
2023-03-14T04:39:02.951Z,29.83
2023-03-14T04:43:03.022Z,29.98
2023-03-14T04:47:03.278Z,29.83
2023-03-14T04:51:03.254Z,29.78
2023-03-14T04:55:03.362Z,29.74
2023-03-14T04:59:03.492Z,29.77
2023-03-14T05:03:03.640Z,29.76
2023-03-14T05:07:03.662Z,29.71
2023-03-14T05:11:03.766Z,29.72
2023-03-14T05:15:03.887Z,29.77
2023-03-14T05:19:04.055Z,29.77
2023-03-14T05:23:04.217Z,29.77
2023-03-14T05:27:04.425Z,29.78
2023-03-14T05:31:04.594Z,29.80
2023-03-14T05:35:04.743Z,29.80
2023-03-14T05:39:04.924Z,29.81
2023-03-14T05:43:05.187Z,29.84
2023-03-14T05:47:05.265Z,29.85
2023-03-14T05:51:05.386Z,29.89
2023-03-14T05:55:05.591Z,29.91
2023-03-14T05:59:05.719Z,29.90
2023-03-14T06:03:07.600Z,29.90
2023-03-14T06:07:06.102Z,29.95
2023-03-14T06:11:06.266Z,29.95
2023-03-14T06:15:06.395Z,29.98
2023-03-14T06:19:06.603Z,30.01
2023-03-14T06:23:06.790Z,30.08
2023-03-14T06:27:06.906Z,30.18
2023-03-14T06:31:07.186Z,30.15
2023-03-14T06:35:07.148Z,30.85
2023-03-14T06:39:07.506Z,32.56
2023-03-14T06:43:07.362Z,33.28
2023-03-14T06:47:07.497Z,34.56
2023-03-14T06:51:07.564Z,36.15
2023-03-14T06:55:07.180Z,36.68
2023-03-14T06:59:07.525Z,37.56
2023-03-14T07:03:07.494Z,38.51
2023-03-14T07:07:07.528Z,39.36
2023-03-14T07:11:07.042Z,39.91
2023-03-14T07:15:17.464Z,40.40
2023-03-14T07:19:07.960Z,40.92
2023-03-14T07:23:06.933Z,40.90
2023-03-14T07:27:07.742Z,40.87
2023-03-14T07:31:06.979Z,41.12
2023-03-14T07:35:07.080Z,41.40
2023-03-14T07:39:06.835Z,41.64
2023-03-14T07:43:06.790Z,41.74
2023-03-14T07:47:06.792Z,41.51
2023-03-14T07:51:07.040Z,42.60
2023-03-14T07:55:07.039Z,41.14
2023-03-14T07:59:06.651Z,41.08
2023-03-14T08:03:06.663Z,35.86
2023-03-14T08:07:06.561Z,38.61
2023-03-14T08:11:06.544Z,39.28
2023-03-14T08:15:06.488Z,39.51
2023-03-14T08:19:06.428Z,39.73
2023-03-14T08:23:06.402Z,39.91
2023-03-14T08:27:08.011Z,40.06
2023-03-14T08:31:06.405Z,40.23
2023-03-14T08:35:06.315Z,40.46
2023-03-14T08:39:06.353Z,40.59
2023-03-14T08:43:06.247Z,40.90
2023-03-14T08:47:06.579Z,40.91
2023-03-14T08:51:06.175Z,40.94
2023-03-14T08:55:06.546Z,41.12
2023-03-14T08:59:06.085Z,41.31
2023-03-14T09:03:06.162Z,41.45
2023-03-14T09:07:06.133Z,41.56
2023-03-14T09:11:06.276Z,41.63
2023-03-14T09:15:06.595Z,41.75
2023-03-14T09:19:06.629Z,41.95
2023-03-14T09:23:06.851Z,42.07
2023-03-14T09:27:07.036Z,42.38
2023-03-14T09:31:07.113Z,42.48
2023-03-14T09:35:07.253Z,42.74
2023-03-14T09:39:07.590Z,41.71
2023-03-14T09:43:07.604Z,42.12
2023-03-14T09:47:08.098Z,42.03
2023-03-14T09:51:08.068Z,41.80
2023-03-14T09:55:07.851Z,38.66
2023-03-14T09:59:07.794Z,39.89
2023-03-14T10:03:08.094Z,40.54
2023-03-14T10:07:07.716Z,41.19
2023-03-14T10:11:07.644Z,41.54
2023-03-14T10:15:07.654Z,41.74
2023-03-14T10:19:07.625Z,42.18
2023-03-14T10:23:07.544Z,41.54
2023-03-14T10:27:07.524Z,41.62
2023-03-14T10:31:07.538Z,41.86
2023-03-14T10:35:07.629Z,42.09
2023-03-14T10:39:07.395Z,41.98
2023-03-14T10:43:07.629Z,42.66
2023-03-14T10:47:07.351Z,37.32
2023-03-14T10:51:07.596Z,36.09
2023-03-14T10:55:07.616Z,35.37
2023-03-14T10:59:08.147Z,35.53
2023-03-14T11:03:07.855Z,35.39
2023-03-14T11:07:07.900Z,35.10
2023-03-14T11:11:08.025Z,34.94
2023-03-14T11:15:08.171Z,35.40
2023-03-14T11:19:08.219Z,35.59
2023-03-14T11:23:08.215Z,35.89
2023-03-14T11:27:08.431Z,36.08
2023-03-14T11:31:08.369Z,36.18
2023-03-14T11:35:08.830Z,36.40
2023-03-14T11:39:08.321Z,37.72
2023-03-14T11:43:08.951Z,37.47
2023-03-14T11:47:09.144Z,38.10
2023-03-14T11:51:08.209Z,38.74
2023-03-14T11:55:08.152Z,39.27
2023-03-14T11:59:08.100Z,39.85
2023-03-14T12:03:08.076Z,40.43
2023-03-14T12:07:08.051Z,35.43
2023-03-14T12:11:07.994Z,35.93
2023-03-14T12:15:07.979Z,36.93
2023-03-14T12:19:08.143Z,37.88
2023-03-14T12:23:08.281Z,38.61
2023-03-14T12:27:08.403Z,38.93
2023-03-14T12:31:08.635Z,38.70
2023-03-14T12:35:08.694Z,38.73
2023-03-14T12:39:09.163Z,38.61
2023-03-14T12:43:08.848Z,38.66
2023-03-14T12:47:08.992Z,38.71
2023-03-14T12:51:09.166Z,38.73
2023-03-14T12:55:09.748Z,38.78
2023-03-14T12:59:09.318Z,38.94
2023-03-14T13:03:09.465Z,38.83
2023-03-14T13:07:09.678Z,38.96
2023-03-14T13:11:09.692Z,38.86
2023-03-14T13:15:11.282Z,38.77
2023-03-14T13:19:10.008Z,38.68
2023-03-14T13:23:10.141Z,38.55
2023-03-14T13:27:10.657Z,38.38
2023-03-14T13:31:10.765Z,38.34
2023-03-14T13:35:10.690Z,38.24
2023-03-14T13:39:10.852Z,38.14
2023-03-14T13:43:11.230Z,38.08
2023-03-14T13:47:11.284Z,38.01
2023-03-14T13:51:11.506Z,37.91
2023-03-14T13:55:11.484Z,37.87
2023-03-14T13:59:11.403Z,37.83
2023-03-14T14:03:11.683Z,37.75
2023-03-14T14:07:11.357Z,37.66
2023-03-14T14:11:11.667Z,37.61
2023-03-14T14:15:11.269Z,37.54
2023-03-14T14:19:11.673Z,37.49
2023-03-14T14:23:11.210Z,37.40
2023-03-14T14:27:11.246Z,37.34
2023-03-14T14:31:11.228Z,37.26
2023-03-14T14:35:11.384Z,37.22
2023-03-14T14:39:11.571Z,37.18
2023-03-14T14:43:11.724Z,37.13
2023-03-14T14:47:11.761Z,37.03
2023-03-14T14:51:11.835Z,37.12
2023-03-14T14:55:12.196Z,37.09
2023-03-14T14:59:12.015Z,37.03
2023-03-14T15:03:12.106Z,36.93
2023-03-14T15:07:12.027Z,36.92
2023-03-14T15:11:12.046Z,36.84
2023-03-14T15:15:12.302Z,36.77
2023-03-14T15:19:23.463Z,36.68
2023-03-14T15:23:12.899Z,36.60
2023-03-14T15:27:11.853Z,36.58
2023-03-14T15:31:11.876Z,36.51
2023-03-14T15:35:11.837Z,36.45
2023-03-14T15:39:11.755Z,36.34
2023-03-14T15:43:11.742Z,36.31
2023-03-14T15:47:11.700Z,36.27
2023-03-14T15:51:11.695Z,36.29
2023-03-14T15:55:11.585Z,36.29
2023-03-14T15:59:11.563Z,36.22
2023-03-14T16:03:11.531Z,36.18
2023-03-14T16:07:11.523Z,36.15
2023-03-14T16:11:11.452Z,36.13
2023-03-14T16:15:11.480Z,36.11
2023-03-14T16:19:11.378Z,36.08
2023-03-14T16:23:11.345Z,36.07
2023-03-14T16:27:11.331Z,36.01
2023-03-14T16:31:11.276Z,35.97
2023-03-14T16:35:11.241Z,35.95
2023-03-14T16:39:11.219Z,35.92
2023-03-14T16:43:16.066Z,35.90
2023-03-14T16:47:12.209Z,35.86
2023-03-14T16:51:11.090Z,35.86
2023-03-14T16:55:11.017Z,35.81
2023-03-14T16:59:11.011Z,35.80
2023-03-14T17:03:10.974Z,35.78
2023-03-14T17:07:10.949Z,35.77
2023-03-14T17:11:10.907Z,35.76
2023-03-14T17:15:10.925Z,35.72
2023-03-14T17:19:10.951Z,35.62
2023-03-14T17:23:10.805Z,35.59
2023-03-14T17:27:10.750Z,35.77
2023-03-14T17:31:10.887Z,35.80
2023-03-14T17:35:10.709Z,35.78
2023-03-14T17:39:10.692Z,35.72
2023-03-14T17:43:11.233Z,35.66
2023-03-14T17:47:10.576Z,35.62
2023-03-14T17:51:10.574Z,35.56
2023-03-14T17:55:10.530Z,35.55
2023-03-14T17:59:10.577Z,35.52
2023-03-14T18:03:10.688Z,35.36
2023-03-14T18:07:10.756Z,35.34
2023-03-14T18:11:10.841Z,35.28
2023-03-14T18:15:10.938Z,35.26
2023-03-14T18:19:10.940Z,35.18
2023-03-14T18:23:11.017Z,35.12
2023-03-14T18:27:11.121Z,35.13
2023-03-14T18:31:11.437Z,35.06
2023-03-14T18:35:11.299Z,35.04
2023-03-14T18:39:11.335Z,35.04
2023-03-14T18:43:11.443Z,35.01
2023-03-14T18:47:11.595Z,34.98
2023-03-14T18:51:11.569Z,34.95
2023-03-14T18:55:11.646Z,34.90
2023-03-14T18:59:11.740Z,34.90
2023-03-14T19:03:11.832Z,34.86
2023-03-14T19:07:11.882Z,34.84
2023-03-14T19:11:11.941Z,34.81
2023-03-14T19:15:12.070Z,34.78
2023-03-14T19:19:12.076Z,34.75
2023-03-14T19:23:12.149Z,34.70
2023-03-14T19:27:12.281Z,34.66
2023-03-14T19:31:12.435Z,34.61
2023-03-14T19:35:12.463Z,34.61
2023-03-14T19:39:12.558Z,34.54
2023-03-14T19:43:12.663Z,34.55
2023-03-14T19:47:12.688Z,34.52
2023-03-14T19:51:12.814Z,34.48
2023-03-14T19:55:12.894Z,34.46
2023-03-14T19:59:12.987Z,34.41
2023-03-14T20:03:13.134Z,34.41
2023-03-14T20:07:13.221Z,34.40
2023-03-14T20:11:13.390Z,34.36
2023-03-14T20:15:13.454Z,34.35
2023-03-14T20:19:13.620Z,34.30
2023-03-14T20:23:13.808Z,34.27
2023-03-14T20:27:13.863Z,34.23
2023-03-14T20:31:13.998Z,34.21
2023-03-14T20:35:14.143Z,34.20
2023-03-14T20:39:14.317Z,34.17
2023-03-14T20:43:14.376Z,34.11
2023-03-14T20:47:14.498Z,34.09
2023-03-14T20:51:14.660Z,34.08
2023-03-14T20:55:14.801Z,34.06
2023-03-14T20:59:14.945Z,34.04
2023-03-14T21:03:15.352Z,34.00
2023-03-14T21:07:15.213Z,33.99
2023-03-14T21:11:15.426Z,33.98
2023-03-14T21:15:15.439Z,33.94
2023-03-14T21:19:15.583Z,33.95
2023-03-14T21:23:17.899Z,33.87
2023-03-14T21:27:15.729Z,33.87
2023-03-14T21:31:15.943Z,33.84
2023-03-14T21:35:15.636Z,33.81
2023-03-14T21:39:15.621Z,33.80
2023-03-14T21:43:15.598Z,33.76
2023-03-14T21:47:15.557Z,33.74
2023-03-14T21:51:15.476Z,33.72
2023-03-14T21:55:15.444Z,33.69
2023-03-14T21:59:15.430Z,33.68
2023-03-14T22:03:15.426Z,33.66
2023-03-14T22:07:17.339Z,33.65
2023-03-14T22:11:15.309Z,33.58
2023-03-14T22:15:15.279Z,33.57
2023-03-14T22:19:15.200Z,33.54
2023-03-14T22:23:15.181Z,33.53
2023-03-14T22:27:15.127Z,33.51
2023-03-14T22:31:15.187Z,33.46
2023-03-14T22:35:15.091Z,33.44
2023-03-14T22:39:15.040Z,33.44
2023-03-14T22:43:14.960Z,33.41
2023-03-14T22:47:14.984Z,33.39
2023-03-14T22:51:14.908Z,33.36
2023-03-14T22:55:14.906Z,33.37
2023-03-14T22:59:15.204Z,33.35
2023-03-14T23:03:14.972Z,33.33
2023-03-14T23:07:15.106Z,33.27
2023-03-14T23:11:15.224Z,33.22
2023-03-14T23:15:15.365Z,33.18
2023-03-14T23:19:15.521Z,33.16
2023-03-14T23:23:15.727Z,33.16
2023-03-14T23:27:15.852Z,33.15
2023-03-14T23:31:16.147Z,33.09
2023-03-14T23:35:16.199Z,33.10
2023-03-14T23:39:16.352Z,33.08
2023-03-14T23:43:16.545Z,33.07
2023-03-14T23:47:16.698Z,33.06
2023-03-14T23:51:16.899Z,33.05
2023-03-14T23:55:17.115Z,32.99
2023-03-14T23:59:17.259Z,33.01
